sensor_id;sensor_type;location;lat;lon;timestamp;P1;durP1;ratioP1;P2;durP2;ratioP2
5939;SDS011;2995;-31.998;115.906;2023-04-24T00:00:23;6.73;;;1.43;;
5939;SDS011;2995;-31.998;115.906;2023-04-24T00:02:56;10.50;;;2.00;;
5939;SDS011;2995;-31.998;115.906;2023-04-24T00:05:27;10.70;;;1.97;;
5939;SDS011;2995;-31.998;115.906;2023-04-24T00:07:59;8.70;;;1.70;;
5939;SDS011;2995;-31.998;115.906;2023-04-24T00:10:33;5.50;;;1.60;;
5939;SDS011;2995;-31.998;115.906;2023-04-24T00:13:04;8.60;;;1.63;;
5939;SDS011;2995;-31.998;115.906;2023-04-24T00:15:36;9.27;;;2.30;;
5939;SDS011;2995;-31.998;115.906;2023-04-24T00:18:09;5.47;;;1.80;;
5939;SDS011;2995;-31.998;115.906;2023-04-24T00:20:40;8.97;;;1.60;;
5939;SDS011;2995;-31.998;115.906;2023-04-24T00:23:13;5.40;;;1.73;;
5939;SDS011;2995;-31.998;115.906;2023-04-24T00:25:44;9.93;;;2.53;;
5939;SDS011;2995;-31.998;115.906;2023-04-24T00:28:15;7.90;;;1.47;;
5939;SDS011;2995;-31.998;115.906;2023-04-24T00:30:46;4.73;;;1.40;;
5939;SDS011;2995;-31.998;115.906;2023-04-24T00:33:20;6.50;;;1.70;;
5939;SDS011;2995;-31.998;115.906;2023-04-24T00:35:51;6.67;;;1.90;;
5939;SDS011;2995;-31.998;115.906;2023-04-24T00:38:22;6.87;;;1.60;;
5939;SDS011;2995;-31.998;115.906;2023-04-24T00:40:54;6.53;;;1.60;;
5939;SDS011;2995;-31.998;115.906;2023-04-24T00:43:25;3.87;;;1.20;;
5939;SDS011;2995;-31.998;115.906;2023-04-24T00:45:56;7.63;;;1.83;;
5939;SDS011;2995;-31.998;115.906;2023-04-24T00:48:30;6.40;;;1.53;;
5939;SDS011;2995;-31.998;115.906;2023-04-24T00:51:02;6.67;;;1.70;;
5939;SDS011;2995;-31.998;115.906;2023-04-24T00:53:33;4.00;;;1.43;;
5939;SDS011;2995;-31.998;115.906;2023-04-24T00:56:05;4.23;;;1.33;;
5939;SDS011;2995;-31.998;115.906;2023-04-24T00:58:36;3.40;;;1.23;;
5939;SDS011;2995;-31.998;115.906;2023-04-24T01:01:08;7.80;;;2.23;;
5939;SDS011;2995;-31.998;115.906;2023-04-24T01:03:42;6.40;;;1.93;;
5939;SDS011;2995;-31.998;115.906;2023-04-24T01:06:13;11.97;;;1.50;;
5939;SDS011;2995;-31.998;115.906;2023-04-24T01:08:45;5.30;;;1.60;;
5939;SDS011;2995;-31.998;115.906;2023-04-24T01:11:17;7.37;;;1.53;;
5939;SDS011;2995;-31.998;115.906;2023-04-24T01:13:49;3.57;;;1.30;;
5939;SDS011;2995;-31.998;115.906;2023-04-24T01:16:20;5.57;;;1.87;;
5939;SDS011;2995;-31.998;115.906;2023-04-24T01:18:54;11.73;;;1.90;;
5939;SDS011;2995;-31.998;115.906;2023-04-24T01:21:26;4.27;;;1.50;;
5939;SDS011;2995;-31.998;115.906;2023-04-24T01:24:01;6.40;;;1.47;;
5939;SDS011;2995;-31.998;115.906;2023-04-24T01:26:33;8.80;;;1.43;;
5939;SDS011;2995;-31.998;115.906;2023-04-24T01:29:04;4.40;;;1.20;;
5939;SDS011;2995;-31.998;115.906;2023-04-24T01:31:36;6.63;;;1.40;;
5939;SDS011;2995;-31.998;115.906;2023-04-24T01:34:08;5.77;;;1.27;;
5939;SDS011;2995;-31.998;115.906;2023-04-24T01:36:39;6.03;;;1.80;;
5939;SDS011;2995;-31.998;115.906;2023-04-24T01:39:16;4.83;;;1.00;;
5939;SDS011;2995;-31.998;115.906;2023-04-24T01:41:49;3.70;;;1.60;;
5939;SDS011;2995;-31.998;115.906;2023-04-24T01:44:20;7.77;;;1.43;;
5939;SDS011;2995;-31.998;115.906;2023-04-24T01:46:52;2.53;;;1.07;;
5939;SDS011;2995;-31.998;115.906;2023-04-24T01:49:24;6.00;;;1.20;;
5939;SDS011;2995;-31.998;115.906;2023-04-24T01:51:55;6.37;;;1.70;;
5939;SDS011;2995;-31.998;115.906;2023-04-24T01:54:28;6.63;;;1.43;;
5939;SDS011;2995;-31.998;115.906;2023-04-24T01:57:00;5.13;;;1.63;;
5939;SDS011;2995;-31.998;115.906;2023-04-24T01:59:31;3.63;;;1.30;;
5939;SDS011;2995;-31.998;115.906;2023-04-24T02:02:04;5.07;;;1.50;;
5939;SDS011;2995;-31.998;115.906;2023-04-24T02:04:35;6.03;;;1.50;;
5939;SDS011;2995;-31.998;115.906;2023-04-24T02:07:06;6.97;;;1.73;;
5939;SDS011;2995;-31.998;115.906;2023-04-24T02:09:40;7.63;;;1.60;;
5939;SDS011;2995;-31.998;115.906;2023-04-24T02:12:11;4.27;;;1.63;;
5939;SDS011;2995;-31.998;115.906;2023-04-24T02:14:43;5.60;;;1.57;;
5939;SDS011;2995;-31.998;115.906;2023-04-24T02:17:14;11.97;;;2.20;;
5939;SDS011;2995;-31.998;115.906;2023-04-24T02:19:46;4.60;;;1.83;;
5939;SDS011;2995;-31.998;115.906;2023-04-24T02:22:17;5.57;;;1.67;;
5939;SDS011;2995;-31.998;115.906;2023-04-24T02:24:51;6.90;;;1.90;;
5939;SDS011;2995;-31.998;115.906;2023-04-24T02:27:22;5.67;;;1.60;;
5939;SDS011;2995;-31.998;115.906;2023-04-24T02:29:53;5.80;;;1.70;;
5939;SDS011;2995;-31.998;115.906;2023-04-24T02:32:25;7.10;;;1.80;;
5939;SDS011;2995;-31.998;115.906;2023-04-24T02:34:57;4.57;;;1.50;;
5939;SDS011;2995;-31.998;115.906;2023-04-24T02:37:28;10.17;;;1.63;;
5939;SDS011;2995;-31.998;115.906;2023-04-24T02:40:02;5.00;;;1.43;;
5939;SDS011;2995;-31.998;115.906;2023-04-24T02:42:33;5.10;;;1.27;;
5939;SDS011;2995;-31.998;115.906;2023-04-24T02:45:06;10.00;;;1.50;;
5939;SDS011;2995;-31.998;115.906;2023-04-24T02:47:38;5.47;;;1.30;;
5939;SDS011;2995;-31.998;115.906;2023-04-24T02:50:09;5.13;;;1.33;;
5939;SDS011;2995;-31.998;115.906;2023-04-24T02:52:40;3.30;;;1.20;;
5939;SDS011;2995;-31.998;115.906;2023-04-24T02:55:14;4.17;;;1.20;;
5939;SDS011;2995;-31.998;115.906;2023-04-24T02:57:45;7.03;;;1.10;;
5939;SDS011;2995;-31.998;115.906;2023-04-24T03:00:16;2.40;;;0.83;;
5939;SDS011;2995;-31.998;115.906;2023-04-24T03:02:48;2.73;;;1.00;;
5939;SDS011;2995;-31.998;115.906;2023-04-24T03:05:20;5.10;;;1.27;;
5939;SDS011;2995;-31.998;115.906;2023-04-24T03:07:51;2.23;;;1.00;;
5939;SDS011;2995;-31.998;115.906;2023-04-24T03:10:24;2.20;;;0.80;;
5939;SDS011;2995;-31.998;115.906;2023-04-24T03:12:55;4.40;;;1.00;;
5939;SDS011;2995;-31.998;115.906;2023-04-24T03:15:27;2.90;;;1.00;;
5939;SDS011;2995;-31.998;115.906;2023-04-24T03:17:58;1.57;;;0.70;;
5939;SDS011;2995;-31.998;115.906;2023-04-24T03:20:29;5.13;;;1.10;;
5939;SDS011;2995;-31.998;115.906;2023-04-24T03:23:01;2.97;;;0.80;;
5939;SDS011;2995;-31.998;115.906;2023-04-24T03:25:34;1.80;;;1.03;;
5939;SDS011;2995;-31.998;115.906;2023-04-24T03:28:05;6.43;;;0.90;;
5939;SDS011;2995;-31.998;115.906;2023-04-24T03:30:37;1.40;;;0.80;;
5939;SDS011;2995;-31.998;115.906;2023-04-24T03:33:08;1.33;;;0.80;;
5939;SDS011;2995;-31.998;115.906;2023-04-24T03:35:39;2.00;;;0.73;;
5939;SDS011;2995;-31.998;115.906;2023-04-24T03:38:11;2.07;;;0.70;;
5939;SDS011;2995;-31.998;115.906;2023-04-24T03:40:44;4.63;;;1.00;;
5939;SDS011;2995;-31.998;115.906;2023-04-24T03:43:15;2.47;;;0.80;;
5939;SDS011;2995;-31.998;115.906;2023-04-24T03:45:47;2.07;;;0.80;;
5939;SDS011;2995;-31.998;115.906;2023-04-24T03:48:18;5.40;;;0.83;;
5939;SDS011;2995;-31.998;115.906;2023-04-24T03:50:49;3.20;;;0.90;;
5939;SDS011;2995;-31.998;115.906;2023-04-24T03:53:21;2.70;;;0.93;;
5939;SDS011;2995;-31.998;115.906;2023-04-24T03:55:54;3.83;;;1.00;;
5939;SDS011;2995;-31.998;115.906;2023-04-24T03:58:26;5.30;;;1.20;;
5939;SDS011;2995;-31.998;115.906;2023-04-24T04:00:57;2.90;;;1.07;;
5939;SDS011;2995;-31.998;115.906;2023-04-24T04:03:29;4.20;;;1.20;;
5939;SDS011;2995;-31.998;115.906;2023-04-24T04:06:00;9.47;;;1.67;;
5939;SDS011;2995;-31.998;115.906;2023-04-24T04:08:31;2.30;;;1.00;;
5939;SDS011;2995;-31.998;115.906;2023-04-24T04:11:05;4.80;;;1.13;;
5939;SDS011;2995;-31.998;115.906;2023-04-24T04:13:36;4.23;;;1.10;;
5939;SDS011;2995;-31.998;115.906;2023-04-24T04:16:08;3.03;;;0.90;;
5939;SDS011;2995;-31.998;115.906;2023-04-24T04:18:39;4.80;;;1.17;;
5939;SDS011;2995;-31.998;115.906;2023-04-24T04:21:10;4.03;;;1.00;;
5939;SDS011;2995;-31.998;115.906;2023-04-24T04:23:41;2.93;;;0.90;;
5939;SDS011;2995;-31.998;115.906;2023-04-24T04:26:15;3.33;;;0.90;;
5939;SDS011;2995;-31.998;115.906;2023-04-24T04:28:47;2.13;;;0.90;;
5939;SDS011;2995;-31.998;115.906;2023-04-24T04:31:19;4.27;;;0.87;;
5939;SDS011;2995;-31.998;115.906;2023-04-24T04:33:50;3.20;;;0.90;;
5939;SDS011;2995;-31.998;115.906;2023-04-24T04:36:21;2.23;;;1.03;;
5939;SDS011;2995;-31.998;115.906;2023-04-24T04:38:52;6.07;;;1.13;;
5939;SDS011;2995;-31.998;115.906;2023-04-24T04:41:27;2.00;;;1.00;;
5939;SDS011;2995;-31.998;115.906;2023-04-24T04:43:58;3.33;;;0.90;;
5939;SDS011;2995;-31.998;115.906;2023-04-24T04:46:31;2.63;;;0.73;;
5939;SDS011;2995;-31.998;115.906;2023-04-24T04:49:03;11.87;;;1.10;;
5939;SDS011;2995;-31.998;115.906;2023-04-24T04:51:34;6.70;;;1.47;;
5939;SDS011;2995;-31.998;115.906;2023-04-24T04:54:06;6.90;;;1.43;;
5939;SDS011;2995;-31.998;115.906;2023-04-24T04:56:39;3.20;;;1.03;;
5939;SDS011;2995;-31.998;115.906;2023-04-24T04:59:10;7.73;;;1.40;;
5939;SDS011;2995;-31.998;115.906;2023-04-24T05:01:41;4.50;;;1.20;;
5939;SDS011;2995;-31.998;115.906;2023-04-24T05:04:13;2.37;;;0.80;;
5939;SDS011;2995;-31.998;115.906;2023-04-24T05:06:44;5.13;;;1.50;;
5939;SDS011;2995;-31.998;115.906;2023-04-24T05:09:17;7.53;;;1.57;;
5939;SDS011;2995;-31.998;115.906;2023-04-24T05:11:50;3.50;;;1.13;;
5939;SDS011;2995;-31.998;115.906;2023-04-24T05:14:22;3.00;;;1.10;;
5939;SDS011;2995;-31.998;115.906;2023-04-24T05:16:53;2.33;;;1.10;;
5939;SDS011;2995;-31.998;115.906;2023-04-24T05:19:24;5.17;;;1.00;;
5939;SDS011;2995;-31.998;115.906;2023-04-24T05:21:55;3.80;;;0.80;;
5939;SDS011;2995;-31.998;115.906;2023-04-24T05:24:31;5.00;;;1.10;;
5939;SDS011;2995;-31.998;115.906;2023-04-24T05:27:04;5.03;;;0.90;;
5939;SDS011;2995;-31.998;115.906;2023-04-24T05:29:36;5.27;;;1.10;;
5939;SDS011;2995;-31.998;115.906;2023-04-24T05:32:07;10.33;;;1.43;;
5939;SDS011;2995;-31.998;115.906;2023-04-24T05:34:38;3.00;;;1.00;;
5939;SDS011;2995;-31.998;115.906;2023-04-24T05:37:10;2.80;;;0.90;;
5939;SDS011;2995;-31.998;115.906;2023-04-24T05:39:41;5.07;;;1.40;;
5939;SDS011;2995;-31.998;115.906;2023-04-24T05:42:14;3.70;;;1.10;;
5939;SDS011;2995;-31.998;115.906;2023-04-24T05:44:45;4.97;;;1.10;;
5939;SDS011;2995;-31.998;115.906;2023-04-24T05:47:17;3.43;;;0.90;;
5939;SDS011;2995;-31.998;115.906;2023-04-24T05:49:48;3.57;;;0.80;;
5939;SDS011;2995;-31.998;115.906;2023-04-24T05:52:19;3.20;;;0.90;;
5939;SDS011;2995;-31.998;115.906;2023-04-24T05:54:50;4.93;;;1.10;;
5939;SDS011;2995;-31.998;115.906;2023-04-24T05:57:24;2.33;;;0.90;;
5939;SDS011;2995;-31.998;115.906;2023-04-24T05:59:55;2.73;;;0.90;;
5939;SDS011;2995;-31.998;115.906;2023-04-24T06:02:26;2.57;;;1.20;;
5939;SDS011;2995;-31.998;115.906;2023-04-24T06:04:58;4.30;;;1.43;;
5939;SDS011;2995;-31.998;115.906;2023-04-24T06:07:30;4.03;;;0.90;;
5939;SDS011;2995;-31.998;115.906;2023-04-24T06:10:02;3.80;;;0.80;;
5939;SDS011;2995;-31.998;115.906;2023-04-24T06:12:36;1.33;;;0.73;;
5939;SDS011;2995;-31.998;115.906;2023-04-24T06:15:07;2.80;;;1.00;;
5939;SDS011;2995;-31.998;115.906;2023-04-24T06:17:39;2.57;;;0.80;;
5939;SDS011;2995;-31.998;115.906;2023-04-24T06:20:10;7.83;;;1.00;;
5939;SDS011;2995;-31.998;115.906;2023-04-24T06:22:41;7.47;;;1.30;;
5939;SDS011;2995;-31.998;115.906;2023-04-24T06:25:13;3.80;;;1.13;;
5939;SDS011;2995;-31.998;115.906;2023-04-24T06:27:46;3.67;;;0.90;;
5939;SDS011;2995;-31.998;115.906;2023-04-24T06:30:17;1.90;;;1.00;;
5939;SDS011;2995;-31.998;115.906;2023-04-24T06:32:48;6.13;;;1.20;;
5939;SDS011;2995;-31.998;115.906;2023-04-24T06:35:20;2.33;;;0.83;;
5939;SDS011;2995;-31.998;115.906;2023-04-24T06:37:51;1.53;;;0.80;;
5939;SDS011;2995;-31.998;115.906;2023-04-24T06:40:22;3.70;;;0.77;;
5939;SDS011;2995;-31.998;115.906;2023-04-24T06:42:56;3.47;;;1.00;;
5939;SDS011;2995;-31.998;115.906;2023-04-24T06:45:29;5.07;;;0.83;;
5939;SDS011;2995;-31.998;115.906;2023-04-24T06:48:01;2.23;;;0.90;;
5939;SDS011;2995;-31.998;115.906;2023-04-24T06:50:32;1.50;;;0.80;;
5939;SDS011;2995;-31.998;115.906;2023-04-24T06:53:04;3.73;;;0.90;;
5939;SDS011;2995;-31.998;115.906;2023-04-24T06:55:37;6.07;;;0.70;;
5939;SDS011;2995;-31.998;115.906;2023-04-24T06:58:11;2.37;;;0.97;;
5939;SDS011;2995;-31.998;115.906;2023-04-24T07:00:42;1.77;;;0.83;;
5939;SDS011;2995;-31.998;115.906;2023-04-24T07:03:14;6.40;;;1.00;;
5939;SDS011;2995;-31.998;115.906;2023-04-24T07:05:45;3.10;;;0.97;;
5939;SDS011;2995;-31.998;115.906;2023-04-24T07:08:17;3.13;;;0.80;;
5939;SDS011;2995;-31.998;115.906;2023-04-24T07:10:49;1.30;;;0.80;;
5939;SDS011;2995;-31.998;115.906;2023-04-24T07:13:22;2.47;;;0.80;;
5939;SDS011;2995;-31.998;115.906;2023-04-24T07:15:54;2.80;;;0.90;;
5939;SDS011;2995;-31.998;115.906;2023-04-24T07:18:25;3.00;;;0.90;;
5939;SDS011;2995;-31.998;115.906;2023-04-24T07:20:56;2.73;;;0.90;;
5939;SDS011;2995;-31.998;115.906;2023-04-24T07:23:28;4.90;;;1.00;;
5939;SDS011;2995;-31.998;115.906;2023-04-24T07:25:59;4.80;;;1.07;;
5939;SDS011;2995;-31.998;115.906;2023-04-24T07:28:33;4.20;;;0.80;;
5939;SDS011;2995;-31.998;115.906;2023-04-24T07:31:04;5.10;;;1.10;;
5939;SDS011;2995;-31.998;115.906;2023-04-24T07:33:36;3.00;;;0.90;;
5939;SDS011;2995;-31.998;115.906;2023-04-24T07:36:07;1.63;;;0.70;;
5939;SDS011;2995;-31.998;115.906;2023-04-24T07:38:43;1.77;;;0.70;;
5939;SDS011;2995;-31.998;115.906;2023-04-24T07:41:14;1.00;;;0.70;;
5939;SDS011;2995;-31.998;115.906;2023-04-24T07:43:48;1.77;;;1.07;;
5939;SDS011;2995;-31.998;115.906;2023-04-24T07:46:20;1.37;;;0.80;;
5939;SDS011;2995;-31.998;115.906;2023-04-24T07:48:52;2.33;;;0.90;;
5939;SDS011;2995;-31.998;115.906;2023-04-24T07:51:23;2.07;;;0.83;;
5939;SDS011;2995;-31.998;115.906;2023-04-24T07:53:55;1.83;;;0.90;;
5939;SDS011;2995;-31.998;115.906;2023-04-24T07:56:26;2.07;;;0.90;;
5939;SDS011;2995;-31.998;115.906;2023-04-24T07:58:59;1.53;;;0.90;;
5939;SDS011;2995;-31.998;115.906;2023-04-24T08:01:31;4.50;;;1.00;;
5939;SDS011;2995;-31.998;115.906;2023-04-24T08:04:02;2.10;;;1.00;;
5939;SDS011;2995;-31.998;115.906;2023-04-24T08:06:34;1.30;;;0.70;;
5939;SDS011;2995;-31.998;115.906;2023-04-24T08:09:05;1.53;;;0.70;;
5939;SDS011;2995;-31.998;115.906;2023-04-24T08:11:36;2.40;;;0.90;;
5939;SDS011;2995;-31.998;115.906;2023-04-24T08:14:10;2.00;;;0.80;;
5939;SDS011;2995;-31.998;115.906;2023-04-24T08:16:44;1.40;;;0.90;;
5939;SDS011;2995;-31.998;115.906;2023-04-24T08:19:15;2.00;;;0.90;;
5939;SDS011;2995;-31.998;115.906;2023-04-24T08:21:47;1.67;;;0.90;;
5939;SDS011;2995;-31.998;115.906;2023-04-24T08:24:18;9.00;;;1.00;;
5939;SDS011;2995;-31.998;115.906;2023-04-24T08:26:49;2.50;;;1.10;;
5939;SDS011;2995;-31.998;115.906;2023-04-24T08:29:26;3.20;;;0.90;;
5939;SDS011;2995;-31.998;115.906;2023-04-24T08:31:57;5.63;;;0.90;;
5939;SDS011;2995;-31.998;115.906;2023-04-24T08:34:29;2.60;;;0.80;;
5939;SDS011;2995;-31.998;115.906;2023-04-24T08:37:00;6.30;;;0.90;;
5939;SDS011;2995;-31.998;115.906;2023-04-24T08:39:32;5.23;;;2.40;;
5939;SDS011;2995;-31.998;115.906;2023-04-24T08:42:03;4.37;;;2.17;;
5939;SDS011;2995;-31.998;115.906;2023-04-24T08:44:37;1.20;;;0.80;;
5939;SDS011;2995;-31.998;115.906;2023-04-24T08:47:08;2.17;;;0.80;;
5939;SDS011;2995;-31.998;115.906;2023-04-24T08:49:40;4.87;;;1.97;;
5939;SDS011;2995;-31.998;115.906;2023-04-24T08:52:12;5.27;;;1.70;;
5939;SDS011;2995;-31.998;115.906;2023-04-24T08:54:44;2.47;;;1.20;;
5939;SDS011;2995;-31.998;115.906;2023-04-24T08:57:17;6.63;;;1.10;;
5939;SDS011;2995;-31.998;115.906;2023-04-24T08:59:50;4.53;;;1.00;;
5939;SDS011;2995;-31.998;115.906;2023-04-24T09:02:21;2.53;;;1.43;;
5939;SDS011;2995;-31.998;115.906;2023-04-24T09:04:55;1.40;;;0.80;;
5939;SDS011;2995;-31.998;115.906;2023-04-24T09:07:27;2.67;;;0.87;;
5939;SDS011;2995;-31.998;115.906;2023-04-24T09:09:59;6.00;;;1.33;;
5939;SDS011;2995;-31.998;115.906;2023-04-24T09:12:32;3.80;;;1.00;;
5939;SDS011;2995;-31.998;115.906;2023-04-24T09:15:06;1.80;;;0.87;;
5939;SDS011;2995;-31.998;115.906;2023-04-24T09:17:38;2.60;;;1.17;;
5939;SDS011;2995;-31.998;115.906;2023-04-24T09:20:09;3.43;;;0.90;;
5939;SDS011;2995;-31.998;115.906;2023-04-24T09:22:42;1.60;;;0.90;;
5939;SDS011;2995;-31.998;115.906;2023-04-24T09:25:14;4.37;;;1.30;;
5939;SDS011;2995;-31.998;115.906;2023-04-24T09:27:45;3.43;;;0.90;;
5939;SDS011;2995;-31.998;115.906;2023-04-24T09:30:21;6.87;;;6.10;;
5939;SDS011;2995;-31.998;115.906;2023-04-24T09:32:59;10.97;;;6.10;;
5939;SDS011;2995;-31.998;115.906;2023-04-24T09:35:41;27.63;;;18.73;;
5939;SDS011;2995;-31.998;115.906;2023-04-24T09:38:17;26.07;;;20.43;;
5939;SDS011;2995;-31.998;115.906;2023-04-24T09:40:49;5.87;;;3.83;;
5939;SDS011;2995;-31.998;115.906;2023-04-24T09:43:20;13.60;;;9.80;;
5939;SDS011;2995;-31.998;115.906;2023-04-24T09:45:54;5.43;;;3.93;;
5939;SDS011;2995;-31.998;115.906;2023-04-24T09:48:30;31.17;;;26.20;;
5939;SDS011;2995;-31.998;115.906;2023-04-24T09:51:02;80.27;;;70.23;;
5939;SDS011;2995;-31.998;115.906;2023-04-24T09:53:36;32.93;;;25.20;;
5939;SDS011;2995;-31.998;115.906;2023-04-24T09:56:08;46.53;;;37.83;;
5939;SDS011;2995;-31.998;115.906;2023-04-24T09:58:40;19.87;;;14.20;;
5939;SDS011;2995;-31.998;115.906;2023-04-24T10:01:13;1.90;;;1.63;;
5939;SDS011;2995;-31.998;115.906;2023-04-24T10:03:45;5.40;;;4.90;;
5939;SDS011;2995;-31.998;115.906;2023-04-24T10:06:16;15.00;;;9.13;;
5939;SDS011;2995;-31.998;115.906;2023-04-24T10:08:48;9.33;;;6.87;;
5939;SDS011;2995;-31.998;115.906;2023-04-24T10:11:19;6.73;;;3.80;;
5939;SDS011;2995;-31.998;115.906;2023-04-24T10:13:50;7.53;;;5.30;;
5939;SDS011;2995;-31.998;115.906;2023-04-24T10:16:25;5.43;;;1.63;;
5939;SDS011;2995;-31.998;115.906;2023-04-24T10:18:57;5.93;;;3.20;;
5939;SDS011;2995;-31.998;115.906;2023-04-24T10:21:32;4.90;;;3.40;;
5939;SDS011;2995;-31.998;115.906;2023-04-24T10:24:08;6.63;;;2.70;;
5939;SDS011;2995;-31.998;115.906;2023-04-24T10:26:41;6.03;;;1.70;;
5939;SDS011;2995;-31.998;115.906;2023-04-24T10:29:18;5.30;;;1.83;;
5939;SDS011;2995;-31.998;115.906;2023-04-24T10:31:52;4.00;;;1.83;;
5939;SDS011;2995;-31.998;115.906;2023-04-24T10:34:23;1.70;;;1.10;;
5939;SDS011;2995;-31.998;115.906;2023-04-24T10:36:55;3.63;;;2.00;;
5939;SDS011;2995;-31.998;115.906;2023-04-24T10:39:27;4.33;;;2.10;;
5939;SDS011;2995;-31.998;115.906;2023-04-24T10:41:59;3.40;;;1.40;;
5939;SDS011;2995;-31.998;115.906;2023-04-24T10:44:36;3.33;;;1.30;;
5939;SDS011;2995;-31.998;115.906;2023-04-24T10:47:14;5.07;;;1.70;;
5939;SDS011;2995;-31.998;115.906;2023-04-24T10:49:46;3.83;;;1.47;;
5939;SDS011;2995;-31.998;115.906;2023-04-24T10:52:20;8.67;;;4.13;;
5939;SDS011;2995;-31.998;115.906;2023-04-24T10:54:51;5.07;;;2.57;;
5939;SDS011;2995;-31.998;115.906;2023-04-24T10:57:28;5.20;;;1.30;;
5939;SDS011;2995;-31.998;115.906;2023-04-24T11:02:48;3.70;;;1.60;;
5939;SDS011;2995;-31.998;115.906;2023-04-24T11:05:21;2.93;;;1.10;;
5939;SDS011;2995;-31.998;115.906;2023-04-24T11:08:14;2.50;;;1.00;;
5939;SDS011;2995;-31.998;115.906;2023-04-24T11:10:54;4.67;;;1.37;;
5939;SDS011;2995;-31.998;115.906;2023-04-24T11:16:43;4.43;;;1.60;;
5939;SDS011;2995;-31.998;115.906;2023-04-24T11:19:23;4.07;;;1.67;;
5939;SDS011;2995;-31.998;115.906;2023-04-24T11:21:55;5.60;;;1.20;;
5939;SDS011;2995;-31.998;115.906;2023-04-24T11:24:29;7.00;;;1.50;;
5939;SDS011;2995;-31.998;115.906;2023-04-24T11:27:06;8.63;;;1.93;;
5939;SDS011;2995;-31.998;115.906;2023-04-24T11:29:43;1.50;;;1.20;;
5939;SDS011;2995;-31.998;115.906;2023-04-24T11:32:26;4.97;;;1.20;;
5939;SDS011;2995;-31.998;115.906;2023-04-24T11:35:01;2.43;;;1.03;;
5939;SDS011;2995;-31.998;115.906;2023-04-24T11:37:34;1.83;;;1.10;;
5939;SDS011;2995;-31.998;115.906;2023-04-24T11:40:07;5.30;;;1.50;;
5939;SDS011;2995;-31.998;115.906;2023-04-24T11:42:40;2.37;;;1.10;;
5939;SDS011;2995;-31.998;115.906;2023-04-24T11:45:13;2.00;;;1.40;;
5939;SDS011;2995;-31.998;115.906;2023-04-24T11:47:46;4.53;;;2.10;;
5939;SDS011;2995;-31.998;115.906;2023-04-24T11:50:20;4.17;;;2.13;;
5939;SDS011;2995;-31.998;115.906;2023-04-24T11:52:53;2.80;;;2.17;;
5939;SDS011;2995;-31.998;115.906;2023-04-24T11:55:26;2.60;;;1.80;;
5939;SDS011;2995;-31.998;115.906;2023-04-24T11:57:59;4.90;;;2.30;;
5939;SDS011;2995;-31.998;115.906;2023-04-24T12:00:30;3.93;;;2.17;;
5939;SDS011;2995;-31.998;115.906;2023-04-24T12:03:06;2.97;;;1.80;;
5939;SDS011;2995;-31.998;115.906;2023-04-24T12:05:40;6.33;;;1.50;;
5939;SDS011;2995;-31.998;115.906;2023-04-24T12:08:11;6.43;;;1.10;;
5939;SDS011;2995;-31.998;115.906;2023-04-24T12:10:55;8.00;;;1.47;;
5939;SDS011;2995;-31.998;115.906;2023-04-24T12:13:27;4.73;;;1.80;;
5939;SDS011;2995;-31.998;115.906;2023-04-24T12:15:58;2.93;;;1.87;;
5939;SDS011;2995;-31.998;115.906;2023-04-24T12:18:31;3.30;;;1.57;;
5939;SDS011;2995;-31.998;115.906;2023-04-24T12:21:22;3.60;;;2.40;;
5939;SDS011;2995;-31.998;115.906;2023-04-24T12:23:56;1.57;;;1.30;;
5939;SDS011;2995;-31.998;115.906;2023-04-24T12:26:27;1.80;;;1.20;;
5939;SDS011;2995;-31.998;115.906;2023-04-24T12:29:01;1.40;;;1.20;;
5939;SDS011;2995;-31.998;115.906;2023-04-24T12:31:33;2.17;;;1.17;;
5939;SDS011;2995;-31.998;115.906;2023-04-24T12:34:04;1.70;;;0.90;;
5939;SDS011;2995;-31.998;115.906;2023-04-24T12:36:50;2.60;;;1.00;;
5939;SDS011;2995;-31.998;115.906;2023-04-24T12:39:23;1.33;;;0.80;;
5939;SDS011;2995;-31.998;115.906;2023-04-24T12:41:55;9.10;;;1.33;;
5939;SDS011;2995;-31.998;115.906;2023-04-24T12:44:30;5.43;;;1.40;;
5939;SDS011;2995;-31.998;115.906;2023-04-24T12:47:03;2.73;;;1.10;;
5939;SDS011;2995;-31.998;115.906;2023-04-24T12:49:35;4.53;;;1.53;;
5939;SDS011;2995;-31.998;115.906;2023-04-24T12:52:09;2.80;;;1.17;;
5939;SDS011;2995;-31.998;115.906;2023-04-24T12:54:40;2.13;;;1.00;;
5939;SDS011;2995;-31.998;115.906;2023-04-24T12:57:12;2.77;;;1.40;;
5939;SDS011;2995;-31.998;115.906;2023-04-24T12:59:43;1.53;;;0.97;;
5939;SDS011;2995;-31.998;115.906;2023-04-24T13:02:14;6.13;;;1.80;;
5939;SDS011;2995;-31.998;115.906;2023-04-24T13:04:46;6.27;;;2.27;;
5939;SDS011;2995;-31.998;115.906;2023-04-24T13:07:20;6.17;;;1.40;;
5939;SDS011;2995;-31.998;115.906;2023-04-24T13:09:51;2.50;;;1.83;;
5939;SDS011;2995;-31.998;115.906;2023-04-24T13:12:23;1.20;;;0.90;;
5939;SDS011;2995;-31.998;115.906;2023-04-24T13:14:55;6.90;;;5.13;;
5939;SDS011;2995;-31.998;115.906;2023-04-24T13:17:27;9.03;;;6.60;;
5939;SDS011;2995;-31.998;115.906;2023-04-24T13:19:59;7.97;;;5.90;;
5939;SDS011;2995;-31.998;115.906;2023-04-24T13:22:33;10.00;;;7.33;;
5939;SDS011;2995;-31.998;115.906;2023-04-24T13:25:05;5.73;;;4.63;;
5939;SDS011;2995;-31.998;115.906;2023-04-24T13:27:43;3.63;;;2.87;;
5939;SDS011;2995;-31.998;115.906;2023-04-24T13:30:14;4.03;;;1.97;;
5939;SDS011;2995;-31.998;115.906;2023-04-24T13:32:45;3.40;;;1.27;;
5939;SDS011;2995;-31.998;115.906;2023-04-24T13:35:17;5.10;;;1.50;;
5939;SDS011;2995;-31.998;115.906;2023-04-24T13:37:50;4.00;;;1.30;;
5939;SDS011;2995;-31.998;115.906;2023-04-24T13:40:21;1.50;;;1.30;;
5939;SDS011;2995;-31.998;115.906;2023-04-24T13:42:53;2.80;;;1.40;;
5939;SDS011;2995;-31.998;115.906;2023-04-24T13:45:24;2.40;;;1.33;;
5939;SDS011;2995;-31.998;115.906;2023-04-24T13:47:55;3.33;;;1.67;;
5939;SDS011;2995;-31.998;115.906;2023-04-24T13:50:28;4.30;;;1.80;;
5939;SDS011;2995;-31.998;115.906;2023-04-24T13:53:01;4.00;;;1.40;;
5939;SDS011;2995;-31.998;115.906;2023-04-24T13:55:33;2.50;;;1.33;;
5939;SDS011;2995;-31.998;115.906;2023-04-24T13:58:05;2.30;;;1.53;;
5939;SDS011;2995;-31.998;115.906;2023-04-24T14:00:37;2.03;;;1.30;;
5939;SDS011;2995;-31.998;115.906;2023-04-24T14:03:08;1.27;;;1.07;;
5939;SDS011;2995;-31.998;115.906;2023-04-24T14:05:40;3.13;;;1.40;;
5939;SDS011;2995;-31.998;115.906;2023-04-24T14:08:13;2.60;;;1.10;;
5939;SDS011;2995;-31.998;115.906;2023-04-24T14:10:45;3.13;;;1.40;;
5939;SDS011;2995;-31.998;115.906;2023-04-24T14:13:17;3.30;;;1.27;;
5939;SDS011;2995;-31.998;115.906;2023-04-24T14:15:48;1.43;;;1.10;;
5939;SDS011;2995;-31.998;115.906;2023-04-24T14:18:20;1.60;;;1.20;;
5939;SDS011;2995;-31.998;115.906;2023-04-24T14:20:53;2.10;;;1.20;;
5939;SDS011;2995;-31.998;115.906;2023-04-24T14:23:26;2.20;;;1.37;;
5939;SDS011;2995;-31.998;115.906;2023-04-24T14:25:57;4.23;;;1.30;;
5939;SDS011;2995;-31.998;115.906;2023-04-24T14:28:28;1.27;;;1.17;;
5939;SDS011;2995;-31.998;115.906;2023-04-24T14:31:00;1.93;;;1.17;;
5939;SDS011;2995;-31.998;115.906;2023-04-24T14:33:31;1.63;;;1.30;;
5939;SDS011;2995;-31.998;115.906;2023-04-24T14:36:02;2.10;;;1.27;;
5939;SDS011;2995;-31.998;115.906;2023-04-24T14:38:36;3.43;;;1.50;;
5939;SDS011;2995;-31.998;115.906;2023-04-24T14:41:08;2.60;;;1.30;;
5939;SDS011;2995;-31.998;115.906;2023-04-24T14:43:39;2.40;;;1.37;;
5939;SDS011;2995;-31.998;115.906;2023-04-24T14:46:10;1.90;;;1.40;;
5939;SDS011;2995;-31.998;115.906;2023-04-24T14:48:41;1.73;;;1.63;;
5939;SDS011;2995;-31.998;115.906;2023-04-24T14:51:12;2.00;;;1.60;;
5939;SDS011;2995;-31.998;115.906;2023-04-24T14:53:46;3.20;;;1.70;;
5939;SDS011;2995;-31.998;115.906;2023-04-24T14:56:17;2.93;;;1.60;;
5939;SDS011;2995;-31.998;115.906;2023-04-24T14:58:48;1.80;;;1.30;;
5939;SDS011;2995;-31.998;115.906;2023-04-24T15:01:20;3.10;;;1.87;;
5939;SDS011;2995;-31.998;115.906;2023-04-24T15:03:51;2.70;;;2.50;;
5939;SDS011;2995;-31.998;115.906;2023-04-24T15:06:22;2.70;;;2.10;;
5939;SDS011;2995;-31.998;115.906;2023-04-24T15:08:55;5.03;;;2.50;;